createdAt,value
2022-11-24T04:49:47.644Z,25.45
2022-11-24T04:52:50.752Z,27.33
2022-11-24T04:55:53.178Z,25.27
2022-11-24T04:58:55.895Z,26.52
2022-11-24T05:01:58.617Z,25.30
2022-11-24T05:05:01.430Z,24.23
2022-11-24T05:08:04.276Z,24.65
2022-11-24T05:11:07.470Z,23.83
2022-11-24T05:14:10.233Z,24.10
2022-11-24T05:17:12.974Z,26.40
2022-11-24T05:20:15.539Z,25.67
2022-11-24T05:23:18.288Z,24.55
2022-11-24T05:26:20.740Z,24.10
2022-11-24T05:29:23.596Z,25.02
2022-11-24T05:32:26.309Z,25.80
2022-11-24T05:35:29.153Z,23.48
2022-11-24T05:38:31.828Z,23.08
2022-11-24T05:41:34.723Z,24.02
2022-11-24T05:44:37.192Z,23.52
2022-11-24T05:47:41.479Z,23.25
2022-11-24T05:50:44.009Z,22.45
2022-11-24T05:53:46.755Z,23.23
2022-11-24T05:56:49.204Z,22.10
2022-11-24T05:59:51.975Z,22.27
2022-11-24T06:02:54.744Z,22.42
2022-11-24T06:05:57.802Z,22.23
2022-11-24T06:09:00.271Z,22.27
2022-11-24T06:12:03.912Z,22.73
2022-11-24T06:15:06.942Z,21.12
2022-11-24T06:18:09.792Z,21.92
2022-11-24T06:21:12.473Z,20.00
2022-11-24T06:24:15.203Z,20.83
2022-11-24T06:27:18.373Z,22.02
2022-11-24T06:30:21.280Z,20.67
2022-11-24T06:33:23.702Z,19.67
2022-11-24T06:36:27.067Z,20.83
2022-11-24T06:39:29.588Z,20.92
2022-11-24T06:42:32.834Z,21.67
2022-11-24T06:45:35.399Z,20.12
2022-11-24T06:48:38.904Z,20.30
2022-11-24T06:51:42.298Z,19.48
2022-11-24T06:54:45.371Z,20.17
2022-11-24T06:57:47.942Z,18.80
2022-11-24T07:00:50.714Z,19.85
2022-11-24T07:03:54.866Z,16.92
2022-11-24T07:06:57.628Z,17.77
2022-11-24T07:10:00.215Z,18.92
2022-11-24T07:13:08.037Z,18.90
2022-11-24T07:19:33.374Z,19.52
2022-11-24T07:22:36.294Z,20.12
2022-11-24T07:25:39.551Z,19.62
2022-11-24T07:28:42.305Z,18.48
2022-11-24T07:31:46.024Z,19.17
2022-11-24T07:34:48.726Z,17.77
2022-11-24T07:37:55.315Z,20.80
2022-11-24T07:41:06.167Z,18.92
2022-11-24T07:44:09.030Z,18.37
2022-11-24T07:47:11.655Z,17.70
2022-11-24T07:50:14.499Z,18.58
2022-11-24T07:53:17.569Z,17.87
2022-11-24T07:56:20.349Z,17.67
2022-11-24T07:59:22.758Z,18.98
2022-11-24T08:02:25.708Z,18.62
2022-11-24T08:05:28.424Z,18.77
2022-11-24T08:08:33.410Z,18.95
2022-11-24T08:11:36.792Z,19.87
2022-11-24T08:14:39.263Z,18.77
2022-11-24T08:17:42.059Z,18.62
2022-11-24T08:20:44.697Z,18.85
2022-11-24T08:23:47.434Z,18.95
2022-11-24T08:26:49.898Z,18.90
2022-11-24T08:29:53.319Z,20.75
2022-11-24T08:32:58.333Z,19.45
2022-11-24T08:36:23.286Z,20.60
2022-11-24T08:39:25.916Z,20.62
2022-11-24T08:42:29.058Z,21.05
2022-11-24T08:45:34.294Z,19.98
2022-11-24T08:48:40.142Z,21.08
2022-11-24T08:51:43.404Z,20.80
2022-11-24T08:54:46.891Z,20.48
2022-11-24T08:57:49.364Z,19.90
2022-11-24T09:00:52.119Z,19.15
2022-11-24T09:03:55.230Z,19.70
2022-11-24T09:06:58.499Z,18.75
2022-11-24T09:10:01.139Z,20.00
2022-11-24T09:13:04.339Z,21.00
2022-11-24T09:16:10.627Z,20.00
2022-11-24T09:19:13.473Z,19.98
2022-11-24T09:22:16.203Z,19.70
2022-11-24T09:25:18.982Z,20.77
2022-11-24T09:28:21.425Z,20.05
2022-11-24T09:31:26.948Z,18.23
2022-11-24T09:34:29.535Z,19.00
2022-11-24T09:37:33.091Z,19.77
2022-11-24T09:40:35.781Z,18.98
2022-11-24T09:44:03.359Z,19.92
2022-11-24T09:47:08.896Z,18.08
2022-11-24T09:50:20.495Z,21.10
2022-11-24T09:53:36.300Z,18.10
2022-11-24T09:56:41.669Z,18.33
2022-11-24T09:59:44.215Z,18.83
2022-11-24T10:02:49.230Z,18.27
2022-11-24T10:05:52.417Z,19.25
2022-11-24T10:09:04.938Z,18.65
2022-11-24T10:12:41.464Z,17.67
2022-11-24T10:15:53.133Z,18.08
2022-11-24T10:19:36.373Z,18.30
2022-11-24T10:22:45.392Z,19.02
2022-11-24T10:25:58.296Z,16.55
2022-11-24T10:29:06.355Z,17.30
2022-11-24T10:32:18.914Z,19.40
2022-11-24T10:35:45.943Z,16.52
2022-11-24T10:38:56.659Z,17.45
2022-11-24T10:42:03.218Z,18.75
2022-11-24T10:45:19.262Z,16.52
2022-11-24T10:48:26.428Z,16.67
2022-11-24T10:52:07.734Z,17.75
2022-11-24T10:55:10.906Z,17.08
2022-11-24T10:58:17.088Z,17.58
2022-11-24T11:01:33.263Z,17.08
2022-11-24T11:04:36.300Z,16.80
2022-11-24T11:07:38.893Z,17.25
2022-11-24T11:10:43.689Z,16.23
2022-11-24T11:14:01.547Z,15.75
2022-11-24T11:17:28.023Z,16.08
2022-11-24T11:20:32.711Z,16.70
2022-11-24T11:23:37.055Z,16.33
2022-11-24T11:26:39.712Z,14.98
2022-11-24T11:36:51.371Z,16.05
2022-11-24T11:39:55.364Z,14.68
2022-11-24T11:43:03.391Z,16.08
2022-11-24T11:46:16.380Z,14.30
2022-11-24T11:49:19.419Z,14.52
2022-11-24T11:52:57.746Z,16.08
2022-11-24T11:56:21.434Z,14.45
2022-11-24T11:59:55.247Z,14.18
2022-11-24T12:03:28.517Z,12.77
2022-11-24T12:06:52.264Z,13.65
2022-11-24T12:09:58.244Z,13.30
2022-11-24T12:13:24.703Z,14.20
2022-11-24T12:16:52.245Z,12.50
2022-11-24T12:20:17.348Z,12.93
2022-11-24T12:23:57.617Z,13.32
2022-11-24T12:27:00.395Z,13.20
2022-11-24T12:30:12.963Z,12.40
2022-11-24T12:34:14.849Z,10.95
2022-11-24T12:37:17.604Z,13.25
2022-11-24T12:40:43.656Z,12.68
2022-11-24T12:43:56.072Z,11.55
2022-11-24T12:48:00.703Z,11.05
2022-11-24T12:51:06.553Z,12.23
2022-11-24T12:54:21.115Z,12.65
2022-11-24T12:57:33.355Z,10.95
2022-11-24T13:00:47.025Z,11.50
2022-11-24T13:03:58.710Z,13.02
2022-11-24T13:07:10.709Z,11.05
2022-11-24T13:13:59.721Z,10.68
2022-11-24T13:20:44.626Z,11.45
2022-11-24T13:24:01.022Z,12.88
2022-11-24T13:27:16.239Z,10.95
2022-11-24T13:30:34.167Z,10.73
2022-11-24T13:33:37.687Z,10.48
2022-11-24T13:36:53.104Z,10.43
2022-11-24T13:40:07.958Z,12.90
2022-11-24T13:43:10.404Z,11.12
2022-11-24T13:46:56.619Z,11.85
2022-11-24T13:50:05.846Z,11.10
2022-11-24T13:53:45.282Z,10.80
2022-11-24T13:56:47.736Z,10.60
2022-11-24T13:59:50.643Z,10.63
2022-11-24T14:02:58.076Z,11.10
2022-11-24T14:06:02.227Z,12.25
2022-11-24T14:09:35.013Z,12.13
2022-11-24T14:12:37.842Z,11.45
2022-11-24T14:15:40.386Z,12.68
2022-11-24T14:18:48.667Z,11.10
2022-11-24T14:21:51.260Z,11.48
2022-11-24T14:24:57.256Z,11.38
2022-11-24T14:28:00.529Z,10.60
2022-11-24T14:31:20.829Z,12.10
2022-11-24T14:34:26.099Z,11.38
2022-11-24T14:37:29.008Z,11.93
2022-11-24T14:40:38.023Z,10.60
2022-11-24T14:43:40.827Z,11.12
2022-11-24T14:46:43.734Z,11.38
2022-11-24T14:49:46.662Z,12.80
2022-11-24T14:52:57.016Z,12.00
2022-11-24T14:56:22.850Z,11.75
2022-11-24T14:59:27.936Z,11.27
2022-11-24T15:02:44.739Z,11.20
2022-11-24T15:06:01.046Z,10.57
2022-11-24T15:09:04.606Z,13.35
2022-11-24T15:12:12.576Z,11.90
2022-11-24T15:15:15.258Z,12.48
2022-11-24T15:18:43.719Z,12.15
2022-11-24T15:21:46.733Z,12.88
2022-11-24T15:24:53.418Z,11.30
2022-11-24T15:27:56.655Z,12.35
2022-11-24T15:31:05.064Z,11.48
2022-11-24T15:34:12.750Z,11.48
2022-11-24T15:37:15.237Z,12.82
2022-11-24T15:40:18.574Z,11.23
2022-11-24T15:43:36.543Z,12.13
2022-11-24T15:46:39.983Z,11.20
2022-11-24T15:49:42.505Z,12.35
2022-11-24T15:52:46.823Z,11.48
2022-11-24T15:55:50.452Z,11.60
2022-11-24T15:58:54.267Z,12.18
2022-11-24T16:01:56.837Z,12.13
2022-11-24T16:04:59.679Z,12.98
2022-11-24T16:08:02.387Z,12.30
2022-11-24T16:11:05.415Z,11.65
2022-11-24T16:14:08.112Z,11.75
2022-11-24T16:17:10.919Z,12.15
2022-11-24T16:20:13.884Z,12.48
2022-11-24T16:23:16.656Z,13.95
2022-11-24T16:26:19.516Z,12.25
2022-11-24T16:29:23.774Z,12.32
2022-11-24T16:32:26.331Z,12.27
2022-11-24T16:35:29.045Z,13.10
2022-11-24T16:38:31.947Z,12.25
2022-11-24T16:41:34.774Z,13.07
2022-11-24T16:44:37.555Z,12.60
2022-11-24T16:47:42.108Z,13.02
2022-11-24T16:50:44.583Z,12.50
2022-11-24T16:53:47.901Z,12.37
2022-11-24T16:56:50.383Z,12.95
2022-11-24T16:59:53.399Z,12.70
